Time;durP1;ratioP1;P1;durP2;ratioP2;P2;SDS_P1;SDS_P2;PMS_P1;PMS_P2;Temp;Humidity;BMP_temperature;BMP_pressure;BME280_temperature;BME280_humidity;BME280_pressure;Samples;Min_cycle;Max_cycle;Signal;HPM_P1;HPM_P2
2023/03/19 00:02:02;;;;;;;34.92;20.65;;;;;;;11.60;47.88;100521.88;5095516;28;20031;-56
2023/03/19 00:04:27;;;;;;;38.55;23.02;;;;;;;11.50;48.18;100523.03;5095236;28;20392;-56
2023/03/19 00:06:53;;;;;;;42.22;24.20;;;;;;;11.42;48.47;100521.47;5095230;28;20039;-56
2023/03/19 00:09:20;;;;;;;42.00;23.52;;;;;;;11.38;48.65;100527.69;5094064;28;20090;-55
2023/03/19 00:11:46;;;;;;;47.30;25.80;;;;;;;11.30;48.70;100528.72;5095258;28;20032;-54
2023/03/19 00:14:12;;;;;;;52.03;27.52;;;;;;;11.27;48.78;100525.31;5095118;28;20031;-57
2023/03/19 00:16:38;;;;;;;49.53;27.20;;;;;;;11.20;48.88;100523.69;5095422;28;20054;-55
2023/03/19 00:19:04;;;;;;;41.53;23.38;;;;;;;11.10;49.11;100521.28;5095132;28;20120;-55
2023/03/19 00:21:30;;;;;;;40.83;22.52;;;;;;;11.09;49.11;100516.94;5094927;28;20472;-56
2023/03/19 00:24:04;;;;;;;46.15;27.02;;;;;;;10.97;49.36;100527.72;5094888;28;20445;-54
2023/03/19 00:26:31;;;;;;;48.83;25.23;;;;;;;10.93;49.47;100526.03;5093522;28;20433;-55
2023/03/19 00:28:57;;;;;;;50.92;27.17;;;;;;;10.90;49.55;100526.09;5094592;28;20110;-57
2023/03/19 00:31:24;;;;;;;52.92;27.35;;;;;;;10.87;49.69;100514.78;5094570;28;20436;-56
2023/03/19 00:33:49;;;;;;;53.00;27.98;;;;;;;10.86;49.51;100513.91;5095133;28;20114;-56
2023/03/19 00:36:16;;;;;;;45.72;25.88;;;;;;;10.80;49.60;100517.50;5094901;28;20066;-56
2023/03/19 00:38:43;;;;;;;48.97;24.83;;;;;;;10.72;49.71;100516.81;5093474;28;20040;-56
2023/03/19 00:41:09;;;;;;;45.35;24.92;;;;;;;10.72;49.87;100518.56;5093331;28;20054;-55
2023/03/19 00:43:36;;;;;;;40.95;23.15;;;;;;;10.74;49.89;100522.91;5094709;28;20032;-56
2023/03/19 00:46:02;;;;;;;47.33;23.85;;;;;;;10.75;50.00;100523.78;5094611;28;20081;-56
2023/03/19 00:48:27;;;;;;;54.28;27.48;;;;;;;10.72;50.09;100531.72;5093122;28;20032;-56
2023/03/19 00:50:53;;;;;;;50.13;27.70;;;;;;;10.69;50.12;100527.41;5076211;28;20464;-57
2023/03/19 00:53:19;;;;;;;46.38;25.75;;;;;;;10.71;50.28;100527.38;5076601;28;20476;-52
2023/03/19 00:55:45;;;;;;;55.35;31.08;;;;;;;10.74;50.13;100524.69;5092965;28;20063;-55
2023/03/19 00:58:11;;;;;;;53.35;29.33;;;;;;;10.69;50.21;100530.03;5094384;28;20545;-55
2023/03/19 01:00:37;;;;;;;50.80;28.05;;;;;;;10.69;50.23;100531.75;5093994;28;20506;-56
2023/03/19 01:03:04;;;;;;;52.85;27.58;;;;;;;10.72;50.32;100523.81;5094377;28;20119;-55
2023/03/19 01:05:30;;;;;;;50.97;26.80;;;;;;;10.75;50.03;100526.41;5093953;28;20487;-54
2023/03/19 01:07:56;;;;;;;46.13;24.98;;;;;;;10.78;49.99;100523.72;5094005;28;20077;-54
2023/03/19 01:10:23;;;;;;;48.63;27.25;;;;;;;10.79;49.97;100526.31;5093929;28;20036;-54
2023/03/19 01:12:49;;;;;;;41.45;23.77;;;;;;;10.72;50.05;100529.09;5092877;28;20445;-54
2023/03/19 01:15:15;;;;;;;49.20;27.10;;;;;;;10.72;50.20;100531.72;5102059;28;20040;-55
2023/03/19 01:17:41;;;;;;;45.30;26.75;;;;;;;10.63;50.23;100537.16;5110411;28;20036;-57
2023/03/19 01:20:11;;;;;;;55.90;28.13;;;;;;;10.58;50.33;100524.97;5093479;28;20039;-53
2023/03/19 01:22:41;;;;;;;45.47;26.63;;;;;;;10.59;50.45;100531.94;5092558;28;20032;-54
2023/03/19 01:25:08;;;;;;;45.90;26.35;;;;;;;10.59;50.32;100531.94;5093646;28;20031;-54
2023/03/19 01:27:34;;;;;;;46.35;26.83;;;;;;;10.63;50.31;100538.00;5092665;28;20047;-53
2023/03/19 01:30:00;;;;;;;42.97;23.80;;;;;;;10.67;50.04;100529.19;5093722;28;20376;-56
2023/03/19 01:32:25;;;;;;;45.13;25.27;;;;;;;10.73;50.11;100533.44;5093590;28;20028;-55
2023/03/19 01:34:52;;;;;;;45.70;27.60;;;;;;;10.73;49.96;100530.81;5093826;28;20036;-56
2023/03/19 01:37:18;;;;;;;44.00;23.85;;;;;;;10.78;50.13;100534.22;5093598;28;20039;-55
2023/03/19 01:39:44;;;;;;;50.13;26.00;;;;;;;10.78;49.97;100531.59;5092272;28;20378;-56
2023/03/19 01:42:09;;;;;;;42.97;25.38;;;;;;;10.82;49.94;100528.03;5092822;28;20040;-55
2023/03/19 01:44:36;;;;;;;42.47;24.65;;;;;;;10.80;49.95;100535.06;5075569;28;20036;-56
2023/03/19 01:47:07;;;;;;;42.78;25.20;;;;;;;10.77;49.86;100530.75;5093431;28;20036;-56
2023/03/19 01:49:33;;;;;;;43.92;24.67;;;;;;;10.77;49.99;100535.09;5093747;28;20039;-56
2023/03/19 01:52:03;;;;;;;40.88;24.02;;;;;;;10.74;49.82;100546.56;5104926;28;20229;-55
2023/03/19 01:54:31;;;;;;;41.58;25.65;;;;;;;10.66;50.06;100545.84;5112298;28;20475;-56
2023/03/19 01:57:05;;;;;;;39.80;24.85;;;;;;;10.62;50.18;100543.31;5112635;28;20475;-55
2023/03/19 01:59:38;;;;;;;50.60;26.48;;;;;;;10.52;50.34;100548.72;5113966;28;20051;-56
2023/03/19 02:02:24;;;;;;;;;;;;;;;10.40;51.07;100551.56;5112847;28;20031;-54
2023/03/19 02:04:52;;;;;;;44.20;25.75;;;;;;;10.34;50.42;100544.69;5113901;28;20030;-54
2023/03/19 02:07:19;;;;;;;42.10;24.65;;;;;;;10.34;50.57;100541.19;5113520;28;20032;-55
2023/03/19 02:09:45;;;;;;;43.22;25.98;;;;;;;10.38;50.57;100558.63;5100830;28;20024;-55
2023/03/19 02:12:11;;;;;;;55.22;31.45;;;;;;;10.32;50.80;100548.22;5109123;28;20042;-56
2023/03/19 02:14:37;;;;;;;47.42;27.85;;;;;;;10.27;50.83;100545.69;5117828;28;20077;-55
2023/03/19 02:17:04;;;;;;;47.75;26.77;;;;;;;10.21;50.96;100539.63;5116580;28;20028;-55
2023/03/19 02:19:37;;;;;;;42.17;25.85;;;;;;;10.19;50.85;100544.06;5117767;28;20035;-54
2023/03/19 02:22:03;;;;;;;44.90;24.88;;;;;;;10.15;51.07;100535.38;5116610;28;20489;-55
2023/03/19 02:24:37;;;;;;;41.28;23.48;;;;;;;10.17;51.28;100535.31;5116531;28;20040;-55
2023/03/19 02:27:06;;;;;;;51.20;28.15;;;;;;;10.22;51.06;100530.88;5117495;28;20031;-55
2023/03/19 02:29:32;;;;;;;45.17;27.00;;;;;;;10.21;50.95;100535.25;5116301;28;20383;-56
2023/03/19 02:31:57;;;;;;;42.70;24.95;;;;;;;10.26;50.89;100527.34;5116486;28;20039;-55
2023/03/19 02:34:23;;;;;;;49.80;27.90;;;;;;;10.31;50.74;100531.59;5117637;28;20059;-55
2023/03/19 02:37:02;;;;;;;48.63;26.55;;;;;;;10.32;50.89;100533.31;5116096;28;20035;-55
2023/03/19 02:39:37;;;;;;;44.67;25.55;;;;;;;10.35;50.76;100542.91;5116072;28;20071;-55
2023/03/19 02:42:04;;;;;;;53.40;29.58;;;;;;;10.28;50.79;100542.16;5117317;28;20027;-55
2023/03/19 02:44:30;;;;;;;50.90;29.17;;;;;;;10.17;51.14;100541.44;5099143;28;20112;-55
2023/03/19 02:46:55;;;;;;;42.53;26.05;;;;;;;10.26;51.10;100548.34;5099294;28;20478;-55
2023/03/19 02:49:21;;;;;;;53.50;27.83;;;;;;;10.30;50.90;100544.78;5115993;28;20058;-55
2023/03/19 02:51:47;;;;;;;50.22;27.70;;;;;;;10.30;50.85;100537.75;5115925;28;20035;-56
2023/03/19 02:54:12;;;;;;;51.63;29.13;;;;;;;10.29;50.97;100543.91;5117097;28;20023;-54
2023/03/19 02:56:38;;;;;;;41.83;25.02;;;;;;;10.29;50.98;100543.91;5116906;28;20164;-53
2023/03/19 02:59:03;;;;;;;47.63;26.65;;;;;;;10.38;50.83;100548.13;5117129;28;20032;-55
2023/03/19 03:01:29;;;;;;;39.33;24.98;;;;;;;10.36;50.74;100542.88;5117074;28;20038;-55
2023/03/19 03:03:54;;;;;;;45.22;26.25;;;;;;;10.39;50.78;100544.59;5115747;28;20119;-54
2023/03/19 03:06:20;;;;;;;42.47;24.42;;;;;;;10.41;50.62;100544.56;5116810;28;20118;-53
2023/03/19 03:08:45;;;;;;;43.42;25.00;;;;;;;10.43;50.58;100548.91;5115502;28;20035;-55
2023/03/19 03:11:11;;;;;;;42.97;25.30;;;;;;;10.39;50.60;100544.59;5116630;28;20567;-54
2023/03/19 03:13:36;;;;;;;45.80;25.23;;;;;;;10.33;50.76;100542.06;5116594;28;20043;-55
2023/03/19 03:16:02;;;;;;;49.92;27.20;;;;;;;10.28;50.66;100546.53;5116758;28;20032;-55
2023/03/19 03:18:27;;;;;;;58.55;30.60;;;;;;;10.23;50.91;100546.59;5115471;28;20519;-54
2023/03/19 03:20:53;;;;;;;59.50;30.60;;;;;;;10.14;51.01;100545.91;5116572;28;20494;-55
2023/03/19 03:23:20;;;;;;;68.45;34.83;;;;;;;10.14;51.12;100541.53;5114306;28;20032;-55
2023/03/19 03:25:49;;;;;;;59.80;30.98;;;;;;;10.04;51.26;100543.41;5116447;28;20028;-54
2023/03/19 03:28:15;;;;;;;65.88;33.47;;;;;;;10.02;51.23;100539.97;5115169;28;20069;-55
2023/03/19 03:30:40;;;;;;;82.68;41.13;;;;;;;9.97;51.37;100536.53;5116487;28;20036;-54
2023/03/19 03:33:06;;;;;;;155.05;74.53;;;;;;;9.92;51.57;100551.50;5115180;28;20038;-54
2023/03/19 03:35:32;;;;;;;117.35;56.00;;;;;;;9.85;51.74;100552.47;5115072;28;20044;-54
2023/03/19 03:37:57;;;;;;;97.32;47.55;;;;;;;9.79;51.81;100557.84;5116190;28;20360;-54
2023/03/19 03:40:23;;;;;;;113.60;57.20;;;;;;;9.75;51.91;100556.16;5116355;28;20356;-55
2023/03/19 03:42:49;;;;;;;167.02;76.90;;;;;;;9.72;51.92;100550.94;5115079;28;20035;-54
2023/03/19 03:45:15;;;;;;;66.60;33.85;;;;;;;9.68;51.90;100549.25;5114881;28;20035;-54
2023/03/19 03:47:41;;;;;;;58.80;31.00;;;;;;;9.67;51.92;100548.41;5097693;28;20055;-55
2023/03/19 03:50:09;;;;;;;78.13;44.33;;;;;;;9.67;52.03;100558.88;5115981;28;20067;-55
2023/03/19 03:52:35;;;;;;;70.07;39.42;;;;;;;9.66;52.10;100558.94;5114655;28;20463;-55
2023/03/19 03:55:01;;;;;;;77.57;42.42;;;;;;;9.63;52.08;100550.19;5115684;28;20039;-56
2023/03/19 03:57:27;;;;;;;57.63;33.42;;;;;;;9.61;52.35;100552.00;5097913;28;20169;-56
2023/03/19 03:59:52;;;;;;;55.60;31.95;;;;;;;9.61;52.22;100559.88;5114674;28;20032;-56
2023/03/19 04:02:19;;;;;;;43.85;26.92;;;;;;;9.58;52.17;100553.78;5115818;28;20028;-54
2023/03/19 04:04:44;;;;;;;44.45;25.55;;;;;;;9.46;52.40;100553.97;5114384;28;20034;-55
2023/03/19 04:07:11;;;;;;;38.42;22.92;;;;;;;9.40;52.44;100551.41;5115643;28;20035;-56
2023/03/19 04:09:36;;;;;;;36.45;22.33;;;;;;;9.47;52.42;100546.06;5115546;28;20036;-56
2023/03/19 04:12:02;;;;;;;41.15;24.13;;;;;;;9.53;52.27;100545.97;5097413;28;20028;-54
2023/03/19 04:14:28;;;;;;;41.25;23.70;;;;;;;9.53;52.23;100548.59;5115834;28;20489;-55
2023/03/19 04:16:53;;;;;;;39.65;23.27;;;;;;;9.60;52.21;100545.00;5114388;28;20043;-56
2023/03/19 04:19:19;;;;;;;41.85;24.33;;;;;;;9.61;52.00;100549.38;5115462;28;20031;-54
2023/03/19 04:21:45;;;;;;;40.03;23.10;;;;;;;9.67;52.04;100542.28;5115372;28;20054;-58
2023/03/19 04:24:11;;;;;;;40.63;23.35;;;;;;;9.65;51.88;100544.06;5115063;28;20387;-54
2023/03/19 04:26:37;;;;;;;37.88;21.85;;;;;;;9.74;51.76;100543.94;5114170;28;20359;-52
2023/03/19 04:29:04;;;;;;;38.03;23.23;;;;;;;9.80;51.56;100542.06;5114061;28;20126;-53
2023/03/19 04:31:29;;;;;;;36.30;22.40;;;;;;;9.82;51.32;100547.31;5115191;28;20031;-56
2023/03/19 04:33:55;;;;;;;41.20;23.73;;;;;;;9.91;51.36;100547.16;5113869;28;20031;-57
2023/03/19 04:36:20;;;;;;;34.88;21.80;;;;;;;9.92;51.05;100545.38;5114937;28;20032;-56
2023/03/19 04:38:46;;;;;;;34.75;22.00;;;;;;;9.89;51.05;100556.78;5114788;28;20542;-56
2023/03/19 04:41:14;;;;;;;42.97;23.58;;;;;;;9.85;51.19;100552.47;5115139;28;20439;-54
2023/03/19 04:43:40;;;;;;;36.33;21.42;;;;;;;9.85;51.10;100557.72;5115069;28;20059;-55
2023/03/19 04:46:06;;;;;;;37.13;22.17;;;;;;;9.88;51.12;100555.06;5114977;28;20078;-56
2023/03/19 04:48:34;;;;;;;35.22;21.17;;;;;;;9.93;51.00;100553.22;5114653;28;20083;-55
2023/03/19 04:51:01;;;;;;;37.38;22.05;;;;;;;9.95;50.97;100543.56;5113477;28;20486;-54
2023/03/19 04:53:27;;;;;;;39.13;23.42;;;;;;;9.99;50.92;100547.88;5114625;28;20036;-55
2023/03/19 04:55:53;;;;;;;39.22;22.55;;;;;;;10.03;50.82;100556.56;5113289;28;20038;-56
2023/03/19 04:58:20;;;;;;;38.42;24.23;;;;;;;10.05;50.68;100547.78;5113508;28;20031;-56
2023/03/19 05:00:46;;;;;;;36.60;22.33;;;;;;;9.97;50.86;100551.41;5096622;28;20122;-56
2023/03/19 05:03:13;;;;;;;41.03;24.15;;;;;;;9.80;51.08;100549.06;5113351;28;20038;-56
2023/03/19 05:05:38;;;;;;;39.55;22.67;;;;;;;9.79;51.24;100542.97;5113074;28;20036;-55
2023/03/19 05:08:04;;;;;;;35.47;22.13;;;;;;;9.88;51.17;100552.44;5113435;28;20042;-55
2023/03/19 05:10:29;;;;;;;37.95;22.63;;;;;;;9.84;51.02;100562.13;5114315;28;20046;-55
2023/03/19 05:12:54;;;;;;;48.58;25.85;;;;;;;9.77;51.22;100555.22;5113256;28;20039;-55
2023/03/19 05:15:20;;;;;;;41.08;24.95;;;;;;;9.78;51.38;100558.75;5113103;28;20054;-55
2023/03/19 05:17:45;;;;;;;36.95;22.90;;;;;;;9.89;51.27;100562.03;5113335;28;20046;-55
2023/03/19 05:20:11;;;;;;;38.20;21.30;;;;;;;10.00;50.82;100565.34;5114088;28;20035;-55
2023/03/19 05:22:37;;;;;;;40.53;23.13;;;;;;;9.93;50.83;100561.09;5112787;28;20502;-55
2023/03/19 05:25:03;;;;;;;40.78;22.55;;;;;;;9.89;50.97;100569.91;5113064;28;20114;-56
2023/03/19 05:27:28;;;;;;;38.60;21.88;;;;;;;9.99;50.94;100560.16;5114035;27;20110;-55
2023/03/19 05:29:53;;;;;;;38.40;22.63;;;;;;;10.15;50.66;100558.13;5113948;28;20462;-57
2023/03/19 05:32:20;;;;;;;42.35;24.20;;;;;;;10.21;50.49;100568.50;5113117;28;20438;-55
2023/03/19 05:34:45;;;;;;;39.67;21.63;;;;;;;10.25;50.31;100567.59;5112879;28;20036;-56
2023/03/19 05:37:11;;;;;;;41.13;23.20;;;;;;;10.37;50.20;100567.38;5114071;28;20046;-54
2023/03/19 05:39:36;;;;;;;37.63;21.45;;;;;;;10.51;50.02;100567.16;5079241;28;20047;-55
2023/03/19 05:42:02;;;;;;;38.15;21.38;;;;;;;10.68;49.65;100569.47;5095297;28;20451;-57
2023/03/19 05:44:27;;;;;;;38.58;22.67;;;;;;;10.80;49.39;100577.97;5112468;28;20028;-54
2023/03/19 05:46:53;;;;;;;38.42;22.20;;;;;;;10.85;49.33;100565.63;5113273;28;20031;-55
2023/03/19 05:49:18;;;;;;;36.85;21.83;;;;;;;11.06;49.03;100573.97;5102943;28;20107;-53
2023/03/19 05:51:44;;;;;;;35.95;21.40;;;;;;;11.24;48.80;100573.56;5111949;28;20027;-54
2023/03/19 05:54:09;;;;;;;40.08;22.80;;;;;;;11.26;48.78;100570.94;5113469;28;20042;-54
2023/03/19 05:56:36;;;;;;;36.22;20.52;;;;;;;11.37;48.59;100576.81;5112749;28;20032;-54
2023/03/19 05:59:01;;;;;;;31.98;19.27;;;;;;;11.54;48.39;100568.56;5113934;28;20076;-56
2023/03/19 06:01:27;;;;;;;36.00;21.23;;;;;;;11.73;47.85;100571.59;5113724;28;20032;-56
2023/03/19 06:03:52;;;;;;;34.88;19.23;;;;;;;11.89;47.52;100572.13;5113756;28;20031;-56
2023/03/19 06:06:18;;;;;;;34.83;19.70;;;;;;;12.07;47.18;100567.31;5095565;28;20043;-56
2023/03/19 06:08:43;;;;;;;39.92;21.67;;;;;;;12.22;46.94;100565.19;5114021;28;20378;-56
2023/03/19 06:11:08;;;;;;;36.97;21.95;;;;;;;12.37;46.54;100556.00;5113721;28;20543;-56
2023/03/19 06:13:34;;;;;;;34.10;19.83;;;;;;;12.39;46.66;100560.34;5112503;28;20038;-57
2023/03/19 06:16:00;;;;;;;29.80;18.75;;;;;;;12.44;46.52;100570.75;5112811;28;20069;-56
2023/03/19 06:18:26;;;;;;;34.13;19.42;;;;;;;12.57;46.51;100569.56;5113605;28;20122;-56
2023/03/19 06:20:51;;;;;;;31.88;19.38;;;;;;;12.70;46.30;100572.72;5113350;28;20111;-55
2023/03/19 06:23:17;;;;;;;33.33;19.98;;;;;;;12.85;46.07;100582.84;5114178;28;20027;-57
2023/03/19 06:25:43;;;;;;;30.15;18.20;;;;;;;12.95;45.82;100589.56;5113759;28;20035;-56
2023/03/19 06:28:09;;;;;;;31.95;19.23;;;;;;;12.91;45.70;100577.38;5112306;28;20440;-55
2023/03/19 06:30:35;;;;;;;36.00;21.00;;;;;;;13.09;45.60;100585.72;5095134;28;20505;-55
2023/03/19 06:33:00;;;;;;;33.35;19.75;;;;;;;13.28;45.28;100590.44;5112498;28;20125;-54
2023/03/19 06:35:26;;;;;;;33.47;20.38;;;;;;;13.42;44.98;100590.00;5113286;28;20423;-54
2023/03/19 06:37:51;;;;;;;41.17;22.95;;;;;;;13.63;44.78;100585.00;5112527;28;20042;-54
2023/03/19 06:40:17;;;;;;;35.15;21.85;;;;;;;13.74;44.47;100581.09;5113372;28;20051;-55
2023/03/19 06:42:46;;;;;;;36.45;21.10;;;;;;;13.90;44.26;100588.53;5112460;28;20039;-56
2023/03/19 06:45:15;;;;;;;34.58;20.25;;;;;;;14.00;44.12;100587.31;5112133;28;20172;-54
2023/03/19 06:47:42;;;;;;;35.20;20.92;;;;;;;14.04;44.07;100588.94;5111894;28;20088;-56
2023/03/19 06:50:09;;;;;;;40.13;22.90;;;;;;;14.09;43.77;100586.19;5095032;28;20035;-54
2023/03/19 06:52:35;;;;;;;36.25;20.00;;;;;;;14.18;43.75;100591.16;5113286;28;20038;-56
2023/03/19 06:55:00;;;;;;;32.42;19.40;;;;;;;14.22;43.52;100590.13;5113287;28;20028;-55
2023/03/19 06:57:26;;;;;;;33.70;20.23;;;;;;;14.30;43.46;100596.88;5113282;28;20035;-55
2023/03/19 06:59:52;;;;;;;41.70;21.17;;;;;;;14.36;43.41;100595.81;5116027;28;20395;-56
2023/03/19 07:02:17;;;;;;;38.40;21.17;;;;;;;14.42;43.26;100598.25;5115580;28;20467;-55
2023/03/19 07:04:43;;;;;;;34.67;20.25;;;;;;;14.42;43.03;100606.19;5116786;28;20039;-57
2023/03/19 07:07:08;;;;;;;36.03;19.45;;;;;;;14.51;42.85;100599.75;5116712;28;20061;-57
2023/03/19 07:09:34;;;;;;;33.17;20.02;;;;;;;14.60;42.79;100604.75;5116851;28;20440;-57
2023/03/19 07:11:59;;;;;;;34.80;20.20;;;;;;;14.67;42.59;100608.00;5115453;28;20035;-57
2023/03/19 07:14:25;;;;;;;30.90;19.00;;;;;;;14.79;42.38;100618.16;5115670;28;20035;-57
2023/03/19 07:16:50;;;;;;;35.33;19.92;;;;;;;14.82;42.30;100615.41;5116587;28;20031;-57
2023/03/19 07:19:16;;;;;;;37.08;20.90;;;;;;;14.76;42.37;100616.50;5116531;28;20035;-57
2023/03/19 07:21:42;;;;;;;34.88;20.77;;;;;;;14.79;42.19;100610.22;5116642;28;20114;-56
2023/03/19 07:24:07;;;;;;;33.30;20.63;;;;;;;14.69;42.08;100612.34;5116738;28;20059;-57
2023/03/19 07:26:33;;;;;;;38.65;21.48;;;;;;;14.75;42.12;100619.19;5098282;28;20032;-56
2023/03/19 07:28:58;;;;;;;31.83;19.42;;;;;;;14.81;42.18;100619.00;5115284;28;20089;-56
2023/03/19 07:31:24;;;;;;;38.28;21.60;;;;;;;14.81;42.35;100626.91;5115165;28;20035;-55
2023/03/19 07:33:50;;;;;;;36.67;21.67;;;;;;;14.91;42.01;100619.50;5116174;28;20364;-56
2023/03/19 07:36:15;;;;;;;35.63;21.42;;;;;;;14.95;41.96;100618.47;5081156;28;20498;-56
2023/03/19 07:38:41;;;;;;;38.20;21.90;;;;;;;14.99;41.88;100615.66;5116152;28;20050;-56
2023/03/19 07:41:07;;;;;;;38.13;20.83;;;;;;;15.11;41.64;100622.28;5114901;28;20032;-55
2023/03/19 07:43:32;;;;;;;33.13;19.33;;;;;;;15.09;41.60;100616.22;5114783;28;20035;-57
2023/03/19 07:45:58;;;;;;;33.03;19.88;;;;;;;15.24;41.54;100622.69;5116060;28;20247;-56
2023/03/19 07:48:23;;;;;;;31.17;19.27;;;;;;;15.38;41.29;100622.19;5115861;28;20019;-56
2023/03/19 07:50:50;;;;;;;32.35;20.75;;;;;;;15.46;41.06;100613.03;5100578;28;20468;-55
2023/03/19 07:53:16;;;;;;;35.17;21.63;;;;;;;15.53;41.03;100609.25;5095690;28;20467;-57
2023/03/19 07:55:41;;;;;;;34.85;22.15;;;;;;;15.63;40.87;100616.81;5094345;28;20040;-56
2023/03/19 07:58:07;;;;;;;37.13;21.88;;;;;;;15.68;40.80;100620.22;5095359;28;20494;-56
2023/03/19 08:00:33;;;;;;;36.70;20.90;;;;;;;15.76;40.67;100615.47;5094072;28;20109;-57
2023/03/19 08:02:58;;;;;;;36.60;22.50;;;;;;;15.82;40.48;100614.38;5095174;28;20115;-57
2023/03/19 08:05:24;;;;;;;35.50;22.33;;;;;;;15.95;40.35;100619.09;5095319;28;20032;-56
2023/03/19 08:07:50;;;;;;;35.28;21.38;;;;;;;16.05;40.14;100621.41;5095164;28;20059;-56
2023/03/19 08:10:16;;;;;;;39.58;23.00;;;;;;;16.10;40.16;100620.28;5094854;28;20036;-57
2023/03/19 08:12:42;;;;;;;35.75;21.45;;;;;;;16.23;40.05;100612.69;5095270;28;20069;-57
2023/03/19 08:15:10;;;;;;;34.25;20.88;;;;;;;16.28;39.92;100613.38;5093890;28;20109;-57
2023/03/19 08:17:39;;;;;;;35.83;21.73;;;;;;;16.40;39.77;100620.81;5095083;28;20031;-55
2023/03/19 08:20:10;;;;;;;36.80;21.98;;;;;;;16.48;39.42;100612.53;5095236;28;20490;-57
2023/03/19 08:22:36;;;;;;;35.58;22.40;;;;;;;16.58;39.53;100610.34;5094829;28;20091;-57
2023/03/19 08:25:03;;;;;;;35.65;22.05;;;;;;;16.68;39.31;100611.69;5094824;28;20494;-57
2023/03/19 08:27:30;;;;;;;39.70;24.02;;;;;;;16.83;39.26;100621.63;5094933;28;20032;-56
2023/03/19 08:29:56;;;;;;;46.38;27.10;;;;;;;16.89;38.95;100609.91;5094644;28;20044;-56
2023/03/19 08:32:22;;;;;;;48.05;27.83;;;;;;;16.94;39.19;100608.75;5095299;28;20036;-58
2023/03/19 08:34:47;;;;;;;63.92;36.55;;;;;;;17.07;39.57;100608.22;5093674;28;20043;-57
2023/03/19 08:37:13;;;;;;;60.78;36.20;;;;;;;17.11;39.48;100604.50;5094794;28;20032;-56
2023/03/19 08:39:38;;;;;;;47.15;29.25;;;;;;;17.17;39.52;100601.56;5094647;28;20070;-57
2023/03/19 08:42:04;;;;;;;38.47;24.85;;;;;;;17.23;39.31;100598.63;5093433;28;20032;-57
2023/03/19 08:44:30;;;;;;;46.28;28.48;;;;;;;17.32;39.36;100608.84;5094525;28;20039;-57
2023/03/19 08:46:55;;;;;;;47.30;31.00;;;;;;;17.34;39.48;100601.66;5094466;28;20063;-57
2023/03/19 08:49:21;;;;;;;41.00;26.83;;;;;;;17.41;39.32;100603.09;5093591;28;20387;-57
2023/03/19 08:51:46;;;;;;;41.70;26.40;;;;;;;17.44;39.28;100608.28;5094292;28;20032;-56
2023/03/19 08:54:12;;;;;;;38.70;25.02;;;;;;;17.52;39.40;100609.72;5094052;28;20044;-56
2023/03/19 08:56:39;;;;;;;51.90;28.05;;;;;;;17.55;39.36;100612.22;5094418;28;20063;-57
2023/03/19 08:59:05;;;;;;;46.85;25.27;;;;;;;17.60;39.43;100610.22;5094187;28;20028;-56
2023/03/19 09:01:30;;;;;;;46.45;27.65;;;;;;;17.64;39.29;100611.81;5094630;28;20046;-55
2023/03/19 09:03:56;;;;;;;38.70;23.98;;;;;;;17.70;39.33;100609.69;5094144;28;20460;-59
2023/03/19 09:06:21;;;;;;;38.60;24.55;;;;;;;17.73;39.34;100606.91;5094351;28;20032;-56
2023/03/19 09:08:47;;;;;;;37.60;23.15;;;;;;;17.75;39.51;100606.84;5092589;28;20118;-57
2023/03/19 09:11:13;;;;;;;36.15;23.02;;;;;;;17.79;39.48;100607.56;5085139;28;20048;-58
2023/03/19 09:13:39;;;;;;;42.38;24.55;;;;;;;17.82;39.35;100605.63;5087212;28;20032;-57
2023/03/19 09:16:06;;;;;;;37.63;22.83;;;;;;;17.88;39.33;100602.69;5089021;28;20540;-58
2023/03/19 09:18:32;;;;;;;37.80;22.48;;;;;;;17.96;39.14;100599.66;5089229;28;20032;-57
2023/03/19 09:20:58;;;;;;;42.42;25.70;;;;;;;18.07;38.94;100597.31;5088340;28;20081;-56
2023/03/19 09:23:24;;;;;;;37.20;22.52;;;;;;;18.19;38.72;100607.38;5093661;28;20036;-57
2023/03/19 09:25:51;;;;;;;42.85;24.00;;;;;;;18.29;38.64;100602.44;5075955;28;20039;-57
2023/03/19 09:28:16;;;;;;;34.30;20.85;;;;;;;18.42;38.31;100597.34;5092664;28;20055;-57
2023/03/19 09:30:45;;;;;;;31.55;18.17;;;;;;;18.53;37.86;100603.00;5075686;28;20032;-56
2023/03/19 09:33:11;;;;;;;29.77;17.98;;;;;;;18.56;37.76;100605.50;5092654;28;20036;-58
2023/03/19 09:35:38;;;;;;;25.50;16.95;;;;;;;18.65;37.27;100604.16;5093834;28;20032;-58
2023/03/19 09:38:04;;;;;;;26.77;17.63;;;;;;;18.75;37.19;100602.81;5101139;28;20696;-58
2023/03/19 09:40:45;;;;;;;30.27;16.83;;;;;;;18.85;36.43;100601.34;5113202;28;20044;-57
2023/03/19 09:43:29;;;;;;;40.47;24.05;;;;;;;18.96;36.92;100598.16;5113630;28;20059;-57
2023/03/19 09:45:55;;;;;;;36.22;21.88;;;;;;;19.03;36.74;100599.53;5114163;28;20063;-56
2023/03/19 09:48:33;;;;;;;36.00;20.85;;;;;;;19.09;36.42;100595.69;5112797;28;20039;-59
2023/03/19 09:51:01;;;;;;;32.17;18.90;;;;;;;19.19;36.74;100602.25;5113760;28;20024;-56
2023/03/19 09:53:36;;;;;;;29.98;17.13;;;;;;;19.19;36.72;100599.59;5113905;28;20065;-57
2023/03/19 09:56:06;;;;;;;27.88;17.08;;;;;;;19.23;36.66;100587.81;5113123;28;20028;-56
2023/03/19 09:58:35;;;;;;;26.60;15.93;;;;;;;19.33;36.37;100591.69;5112601;28;20081;-58
2023/03/19 10:01:02;;;;;;;40.92;22.02;;;;;;;19.35;36.50;100592.47;5113235;28;20038;-57
2023/03/19 10:04:00;;;;;;;32.60;19.13;;;;;;;19.40;35.90;100593.06;5113716;28;20074;-58
2023/03/19 10:06:39;;;;;;;31.58;17.00;;;;;;;19.54;36.01;100591.44;5113705;28;20462;-58
2023/03/19 10:09:36;;;;;;;29.60;16.75;;;;;;;19.64;35.75;100587.38;5113266;28;20024;-57
2023/03/19 10:12:29;;;;;;;26.27;17.02;;;;;;;19.70;35.77;100595.00;5096580;28;20032;-55
2023/03/19 10:15:16;;;;;;;24.88;14.90;;;;;;;19.79;35.59;100586.50;5071267;28;20120;-57
2023/03/19 10:17:52;;;;;;;26.58;14.95;;;;;;;19.87;35.88;100586.94;5108677;28;20039;-58
2023/03/19 10:20:41;;;;;;;31.42;19.65;;;;;;;19.96;35.85;100587.34;5114014;28;20382;-58
2023/03/19 10:23:18;;;;;;;27.73;17.30;;;;;;;20.02;35.71;100589.66;5113800;28;20111;-57
2023/03/19 10:25:44;;;;;;;25.10;15.45;;;;;;;20.10;35.77;100576.72;5113749;28;20031;-58
2023/03/19 10:28:17;;;;;;;25.25;15.35;;;;;;;20.09;35.17;100575.03;5113253;28;20387;-57
2023/03/19 10:30:56;;;;;;;24.92;14.45;;;;;;;20.20;35.37;100577.94;5113132;28;20368;-59
2023/03/19 10:33:27;;;;;;;28.30;16.77;;;;;;;20.25;35.58;100583.00;5094256;28;20348;-57
2023/03/19 10:36:09;;;;;;;24.58;15.32;;;;;;;20.31;34.95;100575.50;5096003;28;20064;-58
2023/03/19 10:38:39;;;;;;;21.52;14.80;;;;;;;20.37;35.13;100574.25;5096984;28;20080;-59
2023/03/19 10:41:17;;;;;;;25.75;15.13;;;;;;;20.42;34.80;100570.34;5096905;28;20116;-56
2023/03/19 10:43:50;;;;;;;24.38;14.85;;;;;;;20.45;35.16;100565.81;5097159;28;20036;-59
2023/03/19 10:46:16;;;;;;;26.33;15.77;;;;;;;20.52;35.35;100572.53;5097080;28;20127;-58
2023/03/19 10:48:45;;;;;;;23.95;14.63;;;;;;;20.58;35.09;100567.66;5095637;28;20094;-58
2023/03/19 10:51:15;;;;;;;21.90;13.77;;;;;;;20.70;35.16;100574.06;5096879;28;20096;-58
2023/03/19 10:53:41;;;;;;;19.70;13.40;;;;;;;20.83;35.02;100576.88;5096665;28;20092;-58
2023/03/19 10:56:29;;;;;;;22.52;14.13;;;;;;;20.58;34.24;100577.47;5096859;28;20421;-58
2023/03/19 10:59:19;;;;;;;20.58;13.30;;;;;;;20.81;34.56;100571.63;5096711;28;20036;-59
2023/03/19 11:01:45;;;;;;;21.83;12.23;;;;;;;20.92;34.79;100571.81;5075996;28;20077;-58
2023/03/19 11:04:21;;;;;;;19.88;13.25;;;;;;;20.83;34.33;100571.53;5091850;28;20036;-58
2023/03/19 11:06:55;;;;;;;23.38;13.15;;;;;;;20.97;34.55;100570.66;5076481;28;20440;-58
2023/03/19 11:09:40;;;;;;;20.02;11.82;;;;;;;20.97;34.39;100573.34;5076466;28;20037;-57
2023/03/19 11:12:26;;;;;;;20.58;13.13;;;;;;;20.89;34.60;100563.97;5076149;28;20028;-58
2023/03/19 11:14:55;;;;;;;21.13;11.35;;;;;;;21.06;34.81;100572.75;5076500;28;20115;-57